Time;durP1;ratioP1;P1;durP2;ratioP2;P2;SDS_P1;SDS_P2;PMS_P1;PMS_P2;Temp;Humidity;BMP_temperature;BMP_pressure;BME280_temperature;BME280_humidity;BME280_pressure;Samples;Min_cycle;Max_cycle;Signal;HPM_P1;HPM_P2
2021/06/09 00:01:50;;;;;;;4.70;4.30;;;;;;;14.34;98.29;99683.38;1816957;79;20971;-68
2021/06/09 00:04:17;;;;;;;5.00;4.60;;;;;;;14.32;98.42;99688.37;1817506;79;20999;-68
2021/06/09 00:06:44;;;;;;;5.83;5.10;;;;;;;14.30;98.53;99690.28;1816594;78;21531;-68
2021/06/09 00:09:11;;;;;;;8.35;5.03;;;;;;;14.27;98.63;99686.58;1807463;79;20921;-67
2021/06/09 00:11:39;;;;;;;5.08;4.60;;;;;;;14.25;98.93;99683.25;1808740;79;20897;-68
2021/06/09 00:14:06;;;;;;;4.92;4.53;;;;;;;14.24;99.22;99685.03;1808862;79;20932;-68
2021/06/09 00:16:33;;;;;;;7.95;5.15;;;;;;;14.22;99.24;99686.94;1808832;79;21520;-67
2021/06/09 00:19:00;;;;;;;5.50;4.87;;;;;;;14.21;99.30;99680.50;1808942;79;21660;-67
2021/06/09 00:21:27;;;;;;;6.30;5.30;;;;;;;14.19;99.55;99680.62;1809082;79;21621;-68
2021/06/09 00:23:54;;;;;;;5.95;5.30;;;;;;;14.19;99.79;99681.09;1808741;79;20933;-67
2021/06/09 00:26:22;;;;;;;5.55;5.12;;;;;;;14.19;100.00;99678.00;1808937;79;20971;-69
2021/06/09 00:28:50;;;;;;;5.70;5.28;;;;;;;14.20;100.00;99679.67;1808715;79;20979;-67
2021/06/09 00:31:18;;;;;;;6.60;5.47;;;;;;;14.20;100.00;99674.91;1808700;79;21123;-67
2021/06/09 00:33:46;;;;;;;6.22;5.55;;;;;;;14.19;100.00;99672.77;1808840;79;21551;-68
2021/06/09 00:36:13;;;;;;;7.28;5.53;;;;;;;14.19;100.00;99674.55;1809032;79;20893;-67
2021/06/09 00:38:40;;;;;;;6.03;5.50;;;;;;;14.18;100.00;99679.42;1808815;79;20984;-68
2021/06/09 00:41:08;;;;;;;6.12;5.53;;;;;;;14.17;100.00;99681.69;1808840;79;20972;-71
2021/06/09 00:43:35;;;;;;;6.08;5.47;;;;;;;14.17;100.00;99685.61;1808899;79;21782;-72
2021/06/09 00:46:10;;;;;;;9.83;6.12;;;;;;;14.17;100.00;99673.83;1808977;79;20908;-67
2021/06/09 00:48:41;;;;;;;8.75;5.83;;;;;;;14.16;100.00;99686.56;1808686;79;20999;-69
2021/06/09 00:51:16;;;;;;;7.00;5.67;;;;;;;14.16;100.00;99683.95;1808832;79;21011;-67
2021/06/09 00:53:59;;;;;;;;;;;;;;;14.13;100.00;99683.70;1811625;79;20924;-70
2021/06/09 00:56:26;;;;;;;6.60;5.95;;;;;;;14.12;100.00;99676.80;1808701;79;21073;-69
2021/06/09 00:58:53;;;;;;;6.50;5.90;;;;;;;14.09;100.00;99679.65;1808707;79;20889;-68
2021/06/09 01:01:24;;;;;;;7.17;5.67;;;;;;;14.08;100.00;99679.77;1808745;79;20953;-67
2021/06/09 01:03:52;;;;;;;6.87;6.28;;;;;;;14.05;100.00;99682.14;1808616;79;20925;-70
2021/06/09 01:06:20;;;;;;;5.97;5.37;;;;;;;14.02;100.00;99678.44;1808806;79;20984;-69
2021/06/09 01:08:47;;;;;;;5.72;5.22;;;;;;;14.00;100.00;99677.25;1808762;79;21108;-70
2021/06/09 01:11:21;;;;;;;7.10;5.90;;;;;;;13.97;100.00;99677.51;1808690;79;20933;-69
2021/06/09 01:13:49;;;;;;;6.85;6.15;;;;;;;13.93;100.00;99677.38;1809059;79;20995;-69
2021/06/09 01:16:17;;;;;;;6.58;5.90;;;;;;;13.92;100.00;99677.02;1808638;79;20928;-68
2021/06/09 01:18:45;;;;;;;6.50;5.90;;;;;;;13.90;100.00;99673.68;1809119;79;21443;-69
2021/06/09 01:21:12;;;;;;;7.83;6.67;;;;;;;13.89;100.00;99675.11;1808730;79;21125;-70
2021/06/09 01:23:39;;;;;;;6.85;6.12;;;;;;;13.88;100.00;99676.89;1808904;79;20941;-68
2021/06/09 01:26:07;;;;;;;9.28;6.58;;;;;;;13.87;100.00;99673.91;1808749;79;20889;-69
2021/06/09 01:28:36;;;;;;;8.53;6.15;;;;;;;13.85;100.00;99677.59;1808923;79;20980;-71
2021/06/09 01:31:03;;;;;;;7.92;6.58;;;;;;;13.85;100.00;99683.66;1808814;79;20837;-68
2021/06/09 01:33:30;;;;;;;7.17;5.97;;;;;;;13.84;100.00;99680.69;1809154;79;21514;-68
2021/06/09 01:35:57;;;;;;;7.37;6.67;;;;;;;13.84;100.00;99683.78;1808700;79;20920;-71
2021/06/09 01:38:24;;;;;;;7.00;6.30;;;;;;;13.85;100.00;99686.75;1809009;79;20902;-70
2021/06/09 01:40:51;;;;;;;9.00;6.30;;;;;;;13.84;100.00;99685.08;1808797;79;20972;-69
2021/06/09 01:43:18;;;;;;;6.65;6.15;;;;;;;13.84;100.00;99684.61;1809024;79;20940;-70
2021/06/09 01:45:47;;;;;;;7.45;6.75;;;;;;;13.83;100.00;99689.48;1808629;79;20968;-69
2021/06/09 01:48:14;;;;;;;9.35;6.45;;;;;;;13.82;100.00;99686.98;1808645;79;20877;-68
2021/06/09 01:50:41;;;;;;;11.03;6.42;;;;;;;13.80;100.00;99696.25;1808761;79;21498;-68
2021/06/09 01:53:09;;;;;;;6.90;6.30;;;;;;;13.80;100.00;99696.73;1808742;79;20885;-69
2021/06/09 01:55:37;;;;;;;7.35;6.60;;;;;;;13.78;100.00;99694.22;1808689;79;20881;-68
2021/06/09 01:58:07;;;;;;;7.08;6.08;;;;;;;13.80;100.00;99693.64;1808953;79;21109;-74
2021/06/09 02:00:41;;;;;;;7.65;6.85;;;;;;;13.81;100.00;99691.38;1808611;79;20932;-74
2021/06/09 02:03:09;;;;;;;6.75;6.15;;;;;;;13.84;100.00;99703.41;1808725;79;21403;-74
2021/06/09 02:05:36;;;;;;;6.47;5.97;;;;;;;13.85;100.00;99701.98;1808731;79;21419;-68
2021/06/09 02:08:07;;;;;;;8.35;6.65;;;;;;;13.87;100.00;99696.16;1812765;79;20916;-68
2021/06/09 02:10:34;;;;;;;7.78;7.00;;;;;;;13.90;100.00;99698.55;1820112;79;21094;-68
2021/06/09 02:13:05;;;;;;;11.30;7.67;;;;;;;13.91;100.00;99698.91;1819656;79;21587;-68
2021/06/09 02:15:32;;;;;;;7.00;6.40;;;;;;;13.96;100.00;99699.88;1819736;79;21434;-68
2021/06/09 02:18:11;;;;;;;9.00;6.50;;;;;;;14.00;100.00;99699.50;1819696;79;21485;-68
2021/06/09 02:20:46;;;;;;;7.03;6.40;;;;;;;14.07;100.00;99702.49;1820091;78;21537;-74
2021/06/09 02:23:18;;;;;;;8.10;7.00;;;;;;;14.33;100.00;99705.77;1819873;78;21379;-75
2021/06/09 02:25:51;;;;;;;6.90;6.20;;;;;;;14.75;100.00;99699.00;1820091;79;20944;-74
2021/06/09 02:28:21;;;;;;;7.47;5.85;;;;;;;15.29;100.00;99702.91;1819696;79;20948;-76
2021/06/09 02:30:48;;;;;;;6.72;6.00;;;;;;;15.82;98.77;99702.97;1820005;78;20971;-76
2021/06/09 02:33:17;;;;;;;6.60;5.83;;;;;;;16.26;95.69;99705.80;1819744;79;20849;-76
2021/06/09 02:35:44;;;;;;;6.75;5.78;;;;;;;16.61;92.50;99699.31;1819957;78;21563;-75
2021/06/09 02:38:12;;;;;;;6.30;5.50;;;;;;;16.99;90.27;99699.95;1819757;79;20881;-75
2021/06/09 02:40:41;;;;;;;8.65;6.15;;;;;;;17.39;88.04;99700.34;1819611;79;20928;-76
2021/06/09 02:43:08;;;;;;;5.80;5.30;;;;;;;17.79;85.77;99703.70;1819606;79;20952;-76
2021/06/09 02:45:35;;;;;;;8.25;5.47;;;;;;;18.20;83.11;99705.16;1819959;78;20849;-75
2021/06/09 02:48:11;;;;;;;7.72;5.58;;;;;;;18.59;80.80;99699.26;1819652;79;21132;-76
2021/06/09 02:50:38;;;;;;;6.90;5.58;;;;;;;18.98;78.46;99690.69;1820246;78;27359;-70
2021/06/09 02:53:28;;;;;;;6.45;5.37;;;;;;;19.38;76.52;99692.58;1819665;79;21455;-69
2021/06/09 02:56:04;;;;;;;6.90;4.90;;;;;;;19.73;74.82;99689.11;1820128;78;21534;-77
2021/06/09 02:58:58;;;;;;;5.20;4.70;;;;;;;20.14;72.91;99691.06;1819913;78;21490;-77
2021/06/09 03:01:45;;;;;;;5.30;4.80;;;;;;;20.47;70.94;99697.88;1802102;78;21489;-77
2021/06/09 03:04:23;;;;;;;8.05;4.85;;;;;;;20.73;69.31;99698.69;1814345;79;20912;-71
2021/06/09 03:07:05;;;;;;;7.30;4.65;;;;;;;21.01;68.14;99690.00;1819953;78;20916;-71
2021/06/09 03:09:40;;;;;;;5.53;4.90;;;;;;;21.35;66.26;99693.91;1810788;78;21526;-71
2021/06/09 03:12:35;;;;;;;5.03;4.53;;;;;;;21.64;65.07;99700.05;1808867;79;20934;-71
2021/06/09 03:15:10;;;;;;;4.58;4.17;;;;;;;21.83;64.20;99706.86;1807825;79;21515;-71
2021/06/09 03:17:56;;;;;;;5.37;4.87;;;;;;;21.91;63.00;99705.53;1808762;79;20909;-71
2021/06/09 03:20:50;;;;;;;7.25;4.78;;;;;;;21.94;62.70;99708.69;1808829;79;21516;-71
2021/06/09 03:23:49;;;;;;;5.28;4.75;;;;;;;22.03;62.61;99702.88;1808776;79;20960;-71
2021/06/09 03:26:58;;;;;;;6.85;4.70;;;;;;;22.18;62.09;99700.38;1809035;79;20904;-71
2021/06/09 03:29:50;;;;;;;7.67;5.17;;;;;;;22.30;61.07;99707.00;1809096;79;21125;-71
2021/06/09 03:32:25;;;;;;;5.78;4.75;;;;;;;22.27;60.83;99702.86;1808772;79;20940;-71
2021/06/09 03:35:01;;;;;;;8.95;4.45;;;;;;;22.31;61.05;99699.88;1809519;79;20937;-71
2021/06/09 03:37:29;;;;;;;5.08;4.50;;;;;;;22.37;60.81;99698.70;1809033;79;21000;-71
2021/06/09 03:39:58;;;;;;;5.40;5.00;;;;;;;22.47;60.56;99695.33;1808816;79;21400;-71
2021/06/09 03:42:30;;;;;;;5.33;4.87;;;;;;;22.61;60.24;99701.27;1825274;78;21097;-71
2021/06/09 03:44:58;;;;;;;6.03;4.87;;;;;;;22.75;59.93;99698.89;1832499;78;20970;-70
2021/06/09 03:47:26;;;;;;;7.85;4.90;;;;;;;22.90;59.77;99701.99;1832359;78;20873;-69
2021/06/09 03:49:53;;;;;;;5.72;4.80;;;;;;;23.06;59.06;99689.14;1827919;77;21464;-70
2021/06/09 03:52:20;;;;;;;6.47;4.92;;;;;;;23.18;58.68;99691.73;1832522;78;20904;-69
2021/06/09 03:54:53;;;;;;;5.00;4.50;;;;;;;23.37;58.44;99692.27;1825754;78;21136;-70
2021/06/09 03:57:22;;;;;;;4.80;4.40;;;;;;;23.49;57.69;99690.86;1832427;78;20876;-69
2021/06/09 03:59:49;;;;;;;8.43;4.70;;;;;;;23.56;57.87;99687.84;1832909;78;20923;-69
2021/06/09 04:02:17;;;;;;;5.65;5.15;;;;;;;23.70;57.41;99692.37;1831739;78;20876;-69
2021/06/09 04:04:44;;;;;;;7.40;5.47;;;;;;;23.82;56.86;99690.94;1816810;78;20901;-69
2021/06/09 04:07:11;;;;;;;5.15;4.65;;;;;;;23.93;56.83;99684.38;1823956;78;21075;-69
2021/06/09 04:09:38;;;;;;;19.15;5.22;;;;;;;24.09;56.31;99690.84;1832309;78;20951;-69
2021/06/09 04:12:07;;;;;;;9.58;4.92;;;;;;;24.18;55.81;99686.27;1832659;78;20958;-69
2021/06/09 04:14:40;;;;;;;7.03;5.60;;;;;;;24.19;55.83;99688.75;1832323;78;20840;-69
2021/06/09 04:17:08;;;;;;;5.10;4.60;;;;;;;24.24;55.80;99690.88;1829105;77;21548;-70
2021/06/09 04:19:36;;;;;;;5.75;4.40;;;;;;;24.31;55.45;99699.81;1828910;78;21664;-70
2021/06/09 04:22:04;;;;;;;6.42;5.05;;;;;;;24.37;55.59;99698.27;1818654;78;21416;-69
2021/06/09 04:24:34;;;;;;;7.35;5.08;;;;;;;24.40;55.35;99689.37;1818528;78;20963;-69
2021/06/09 04:27:05;;;;;;;6.08;5.47;;;;;;;24.44;55.63;99688.00;1814963;78;20964;-70
2021/06/09 04:29:32;;;;;;;5.87;4.87;;;;;;;24.59;55.56;99689.34;1832474;78;20900;-69
2021/06/09 04:31:59;;;;;;;7.30;4.87;;;;;;;24.71;55.24;99687.05;1832694;78;21496;-70
2021/06/09 04:34:26;;;;;;;5.30;4.90;;;;;;;24.77;55.24;99682.31;1832297;78;20869;-70
2021/06/09 04:36:53;;;;;;;5.47;5.08;;;;;;;24.85;55.33;99682.18;1832312;78;20864;-69
2021/06/09 04:39:21;;;;;;;7.15;4.87;;;;;;;24.97;54.52;99675.91;1832344;78;20865;-69
2021/06/09 04:41:48;;;;;;;5.20;4.80;;;;;;;25.01;54.69;99674.02;1832430;77;20986;-69
2021/06/09 04:44:15;;;;;;;7.58;4.97;;;;;;;25.17;54.57;99675.63;1832294;78;21118;-69
2021/06/09 04:46:43;;;;;;;5.53;4.40;;;;;;;25.48;54.14;99672.66;1832233;78;20916;-69
2021/06/09 04:49:10;;;;;;;5.60;5.10;;;;;;;25.72;53.23;99672.27;1832619;78;20935;-69
2021/06/09 04:51:38;;;;;;;5.35;4.95;;;;;;;25.90;53.42;99667.81;1817399;78;20965;-68
2021/06/09 04:54:06;;;;;;;6.97;5.65;;;;;;;26.31;52.70;99672.42;1809205;78;20984;-70
2021/06/09 04:56:35;;;;;;;5.20;4.70;;;;;;;26.62;51.79;99675.45;1784693;79;49969;-71
2021/06/09 04:59:07;;;;;;;5.97;4.42;;;;;;;26.87;51.32;99674.41;1798842;79;20960;-68
2021/06/09 05:01:38;;;;;;;7.50;4.90;;;;;;;27.08;50.48;99674.33;1790597;79;20903;-70
2021/06/09 05:04:06;;;;;;;6.17;5.08;;;;;;;27.31;49.86;99677.96;1790956;79;20978;-71
2021/06/09 05:06:34;;;;;;;7.97;5.10;;;;;;;27.36;49.19;99679.52;1766556;80;21010;-71
2021/06/09 05:09:06;;;;;;;5.72;4.65;;;;;;;27.30;48.59;99687.01;1775285;79;21525;-70
2021/06/09 05:11:52;;;;;;;6.50;4.85;;;;;;;27.11;49.38;99685.95;1791175;79;20986;-70
2021/06/09 05:14:39;;;;;;;4.95;4.45;;;;;;;26.95;49.87;99694.80;1828559;77;20962;-69
2021/06/09 05:17:06;;;;;;;5.12;4.67;;;;;;;27.00;49.19;99697.73;1832196;77;20946;-70
2021/06/09 05:19:33;;;;;;;5.30;4.90;;;;;;;26.88;49.73;99701.45;1834094;77;20962;-68
2021/06/09 05:22:08;;;;;;;5.33;4.37;;;;;;;26.95;49.80;99695.63;1810166;78;21162;-71
2021/06/09 05:24:35;;;;;;;5.83;4.60;;;;;;;27.08;49.41;99697.05;1810699;78;21041;-72
2021/06/09 05:27:02;;;;;;;5.83;5.10;;;;;;;27.10;49.50;99699.52;1827263;78;21487;-68
2021/06/09 05:29:29;;;;;;;6.15;4.47;;;;;;;27.16;49.17;99696.05;1836798;77;20967;-70
2021/06/09 05:31:56;;;;;;;5.75;5.15;;;;;;;27.19;49.62;99689.75;1822484;77;21036;-68
2021/06/09 05:34:23;;;;;;;5.35;4.85;;;;;;;27.36;49.17;99692.06;1824747;78;21442;-69
2021/06/09 05:36:51;;;;;;;5.30;4.80;;;;;;;27.46;48.94;99683.96;1848934;77;20978;-68
2021/06/09 05:39:19;;;;;;;5.45;4.95;;;;;;;27.51;48.96;99688.70;1829932;77;21504;-70
2021/06/09 05:41:46;;;;;;;5.50;5.00;;;;;;;27.43;49.25;99691.56;1826002;77;21015;-70
2021/06/09 05:44:17;;;;;;;5.70;5.20;;;;;;;27.50;49.18;99690.55;1825503;78;20988;-70
2021/06/09 05:46:44;;;;;;;5.60;4.45;;;;;;;27.67;49.33;99692.33;1823823;78;21518;-69
2021/06/09 05:49:22;;;;;;;7.58;5.28;;;;;;;27.84;49.27;99698.11;1815247;78;21007;-71
2021/06/09 05:51:50;;;;;;;4.75;4.20;;;;;;;27.98;48.17;99701.09;1825890;77;21422;-69
2021/06/09 05:54:18;;;;;;;4.90;4.50;;;;;;;28.05;48.09;99697.88;1756353;80;21582;-69
2021/06/09 05:56:46;;;;;;;5.12;4.58;;;;;;;28.03;48.21;99693.25;1828786;78;21027;-69
2021/06/09 05:59:15;;;;;;;5.03;4.45;;;;;;;28.16;48.03;99700.45;1796914;80;21528;-69
2021/06/09 06:01:45;;;;;;;4.78;4.33;;;;;;;28.26;47.62;99692.85;1816840;77;21072;-68
2021/06/09 06:04:13;;;;;;;4.35;4.05;;;;;;;28.22;47.14;99690.28;1837729;77;21041;-69
2021/06/09 06:06:41;;;;;;;6.92;4.10;;;;;;;28.20;46.47;99696.33;1835197;77;20957;-71
2021/06/09 06:09:09;;;;;;;4.42;4.03;;;;;;;28.21;46.79;99696.66;1820114;78;20990;-69
2021/06/09 06:11:36;;;;;;;4.62;3.98;;;;;;;28.19;46.72;99690.15;1797924;79;21998;-67
2021/06/09 06:14:06;;;;;;;4.53;4.15;;;;;;;28.13;47.09;99697.67;1797890;79;20915;-68
2021/06/09 06:16:33;;;;;;;4.37;4.00;;;;;;;28.06;46.86;99697.36;1788132;79;21079;-71
2021/06/09 06:19:00;;;;;;;5.05;4.60;;;;;;;27.94;47.00;99693.17;1785608;78;21500;-71
2021/06/09 06:21:27;;;;;;;5.15;4.33;;;;;;;27.86;47.44;99695.54;1797217;79;20921;-69
2021/06/09 06:23:55;;;;;;;4.30;3.90;;;;;;;27.87;47.86;99697.70;1785895;79;21122;-68
2021/06/09 06:26:22;;;;;;;6.30;3.98;;;;;;;28.06;47.34;99700.86;1783409;79;21025;-70
2021/06/09 06:28:52;;;;;;;4.80;3.40;;;;;;;28.21;45.77;99693.98;1783762;79;21076;-68
2021/06/09 06:31:24;;;;;;;5.08;3.75;;;;;;;28.24;45.19;99696.25;1781245;79;20982;-71
2021/06/09 06:33:53;;;;;;;3.27;3.08;;;;;;;28.17;44.83;99697.56;1777289;80;21021;-70
2021/06/09 06:36:24;;;;;;;5.60;3.25;;;;;;;28.14;43.98;99704.67;1778892;80;20888;-70
2021/06/09 06:38:51;;;;;;;3.98;3.08;;;;;;;28.06;44.13;99700.86;1773287;79;21040;-69
2021/06/09 06:41:19;;;;;;;3.72;3.08;;;;;;;28.12;44.69;99697.36;1784532;79;21041;-69
2021/06/09 06:43:46;;;;;;;3.17;2.98;;;;;;;28.41;44.28;99705.47;1766841;79;21592;-69
2021/06/09 06:46:18;;;;;;;6.25;3.40;;;;;;;28.70;42.74;99697.98;1786097;79;20967;-70
2021/06/09 06:48:47;;;;;;;3.10;2.83;;;;;;;28.77;41.90;99701.47;1788157;79;21112;-69
2021/06/09 06:51:15;;;;;;;4.83;2.95;;;;;;;28.76;42.39;99692.61;1790686;79;20891;-70
2021/06/09 06:53:43;;;;;;;3.45;3.15;;;;;;;28.90;42.37;99700.09;1785069;79;21490;-70
2021/06/09 06:56:10;;;;;;;3.42;3.10;;;;;;;28.96;42.55;99694.39;1786348;79;21038;-69
2021/06/09 06:58:39;;;;;;;3.30;3.00;;;;;;;29.20;41.38;99703.02;1795982;79;21014;-71
2021/06/09 07:01:17;;;;;;;2.52;2.35;;;;;;;29.31;41.21;99702.86;1795998;79;21121;-71
2021/06/09 07:03:44;;;;;;;2.52;2.33;;;;;;;29.35;40.21;99698.20;1727594;81;20995;-68
2021/06/09 07:06:11;;;;;;;2.83;2.45;;;;;;;29.29;39.86;99697.72;1732187;82;20950;-70
2021/06/09 07:08:40;;;;;;;2.92;2.65;;;;;;;29.26;39.92;99704.84;1719592;82;20999;-70
2021/06/09 07:11:12;;;;;;;3.02;2.42;;;;;;;29.31;39.04;99694.30;1745391;82;21075;-69
2021/06/09 07:13:41;;;;;;;3.00;2.80;;;;;;;29.37;39.50;99691.27;1745359;81;21011;-68
2021/06/09 07:16:10;;;;;;;6.00;2.33;;;;;;;29.42;38.83;99694.16;1745710;81;21518;-70
2021/06/09 07:18:45;;;;;;;2.15;2.05;;;;;;;29.35;38.86;99697.38;1755713;81;20986;-69
2021/06/09 07:21:14;;;;;;;2.90;2.40;;;;;;;29.13;38.44;99695.55;1770286;81;20924;-70
2021/06/09 07:23:42;;;;;;;5.92;2.22;;;;;;;29.05;38.51;99696.63;1720644;82;20911;-71
2021/06/09 07:26:10;;;;;;;4.28;2.20;;;;;;;29.07;38.04;99690.53;1730313;82;21154;-71
2021/06/09 07:28:47;;;;;;;3.40;2.20;;;;;;;29.00;38.58;99693.76;1732275;80;20990;-69
2021/06/09 07:31:34;;;;;;;2.55;2.45;;;;;;;28.98;39.86;99695.83;1742509;80;20931;-68
2021/06/09 07:34:02;;;;;;;3.03;2.40;;;;;;;29.06;39.53;99694.25;1744609;81;20940;-70
2021/06/09 07:36:48;;;;;;;2.58;2.33;;;;;;;29.13;39.03;99691.53;1728107;80;20986;-69
2021/06/09 07:39:30;;;;;;;3.52;2.65;;;;;;;29.04;39.99;99686.94;1741226;82;21663;-68
2021/06/09 07:41:56;;;;;;;2.47;2.27;;;;;;;29.05;40.08;99684.56;1732278;80;21021;-70
2021/06/09 07:44:23;;;;;;;2.30;2.10;;;;;;;29.11;39.56;99688.24;1742814;80;21073;-70
2021/06/09 07:46:51;;;;;;;2.00;1.90;;;;;;;29.16;38.97;99685.23;1716117;83;20978;-71
2021/06/09 07:49:18;;;;;;;2.50;2.12;;;;;;;29.16;38.46;99685.23;1716184;83;21592;-70
2021/06/09 07:51:45;;;;;;;3.12;2.27;;;;;;;29.20;39.15;99683.73;1715991;83;21961;-71
2021/06/09 07:54:14;;;;;;;2.83;2.62;;;;;;;29.34;37.96;99686.34;1718065;81;21454;-74
2021/06/09 07:56:43;;;;;;;1.95;1.85;;;;;;;29.18;38.37;99697.08;1716846;83;21002;-71
2021/06/09 07:59:11;;;;;;;2.33;2.22;;;;;;;28.84;38.81;99685.67;1717017;83;20954;-70
2021/06/09 08:01:43;;;;;;;2.62;2.42;;;;;;;28.71;39.31;99691.59;1769067;79;21691;-71
2021/06/09 08:04:11;;;;;;;2.92;2.45;;;;;;;28.57;39.92;99696.68;1787298;79;21922;-70
2021/06/09 08:06:39;;;;;;;2.10;2.00;;;;;;;28.58;40.36;99694.31;1796387;79;21006;-70
2021/06/09 08:09:07;;;;;;;2.40;2.20;;;;;;;28.70;40.46;99687.27;1775776;79;21517;-70
2021/06/09 08:11:37;;;;;;;3.22;2.15;;;;;;;28.86;40.06;99690.30;1762469;79;21458;-71
2021/06/09 08:14:04;;;;;;;3.05;2.35;;;;;;;29.03;40.25;99694.67;1779020;79;20975;-70
2021/06/09 08:16:32;;;;;;;2.10;1.90;;;;;;;29.17;39.48;99691.41;1738934;80;20965;-70
2021/06/09 08:19:07;;;;;;;2.27;2.08;;;;;;;29.11;39.45;99691.75;1793064;79;20986;-68
2021/06/09 08:21:35;;;;;;;2.08;1.90;;;;;;;29.04;39.27;99694.98;1800718;79;20893;-71
2021/06/09 08:24:04;;;;;;;1.90;1.80;;;;;;;29.13;39.29;99691.02;1793794;79;20984;-71
2021/06/09 08:26:31;;;;;;;3.25;2.05;;;;;;;29.29;39.01;99689.66;1814256;79;20960;-69
2021/06/09 08:28:59;;;;;;;2.17;2.08;;;;;;;29.40;38.87;99688.16;1813880;79;21118;-68
2021/06/09 08:31:28;;;;;;;1.52;1.50;;;;;;;29.35;37.04;99684.78;1786021;79;21040;-69
2021/06/09 08:33:58;;;;;;;5.17;1.90;;;;;;;29.09;36.91;99690.31;1768275;79;21021;-69
2021/06/09 08:36:25;;;;;;;2.25;2.05;;;;;;;28.90;37.75;99693.38;1770449;80;20915;-71
2021/06/09 08:38:56;;;;;;;4.20;2.20;;;;;;;28.82;38.19;99685.06;1747535;82;20930;-71
2021/06/09 08:41:29;;;;;;;11.70;2.77;;;;;;;28.85;38.17;99694.02;1783343;80;21101;-69
2021/06/09 08:43:57;;;;;;;2.50;1.90;;;;;;;28.85;38.28;99691.34;1812936;77;20938;-70
2021/06/09 08:46:25;;;;;;;2.00;1.90;;;;;;;28.80;38.61;99695.66;1801170;78;21603;-70
2021/06/09 08:48:56;;;;;;;2.58;2.12;;;;;;;28.67;38.03;99689.03;1752147;80;21536;-70
2021/06/09 08:51:26;;;;;;;2.00;1.90;;;;;;;28.48;38.68;99695.56;1805399;77;20990;-70
2021/06/09 08:53:55;;;;;;;3.10;2.87;;;;;;;28.29;39.55;99688.94;1823404;77;21244;-71
2021/06/09 08:56:24;;;;;;;2.77;2.55;;;;;;;28.32;39.59;99690.68;1821797;77;20922;-70
2021/06/09 08:58:53;;;;;;;3.65;2.52;;;;;;;28.37;39.61;99686.86;1797549;77;21065;-72
2021/06/09 09:01:20;;;;;;;3.90;2.60;;;;;;;28.32;38.96;99686.66;1810199;77;20973;-70
2021/06/09 09:03:49;;;;;;;2.30;2.10;;;;;;;28.24;40.12;99689.56;1806775;77;20883;-70
2021/06/09 09:06:20;;;;;;;2.10;2.00;;;;;;;28.11;40.01;99691.70;1793737;79;21473;-69
2021/06/09 09:08:48;;;;;;;3.37;2.30;;;;;;;27.89;39.86;99691.11;1766408;81;20919;-70
2021/06/09 09:11:15;;;;;;;2.45;2.33;;;;;;;27.75;40.47;99692.64;1782928;80;20936;-70
2021/06/09 09:13:44;;;;;;;2.30;2.20;;;;;;;27.82;41.13;99683.59;1783089;80;20975;-69
2021/06/09 09:16:12;;;;;;;2.27;2.17;;;;;;;27.97;41.17;99678.55;1783242;80;21016;-71
2021/06/09 09:18:51;;;;;;;3.10;2.37;;;;;;;28.13;41.58;99680.78;1791463;78;21758;-69
2021/06/09 09:21:19;;;;;;;;;;;;;;;28.24;40.54;99682.86;1797130;79;21544;-70
2021/06/09 09:23:48;;;;;;;3.25;2.37;;;;;;;28.13;39.38;99676.25;1791028;79;20096;-71
2021/06/09 09:26:30;;;;;;;4.75;3.20;;;;;;;27.81;39.72;99670.42;1815526;79;20863;-70
2021/06/09 09:29:21;;;;;;;4.90;4.47;;;;;;;27.62;40.68;99672.05;1815812;79;20934;-70
2021/06/09 09:32:00;;;;;;;3.58;3.27;;;;;;;27.52;40.79;99664.94;1815461;79;21928;-69
2021/06/09 09:34:43;;;;;;;5.17;3.40;;;;;;;27.45;41.49;99665.45;1799943;78;20930;-69
2021/06/09 09:37:23;;;;;;;3.37;2.33;;;;;;;27.43;41.53;99664.83;1789843;77;20914;-70
2021/06/09 09:39:53;;;;;;;2.25;2.08;;;;;;;27.36;42.36;99659.46;1808888;78;20943;-70
2021/06/09 09:42:35;;;;;;;3.27;2.52;;;;;;;27.43;41.42;99654.12;1809529;78;20919;-68
2021/06/09 09:45:27;;;;;;;2.52;2.37;;;;;;;27.43;41.66;99658.14;1817386;78;20994;-70
2021/06/09 09:48:11;;;;;;;5.80;5.25;;;;;;;27.51;42.25;99658.77;1787219;79;20969;-70
2021/06/09 09:50:48;;;;;;;4.05;3.65;;;;;;;27.52;41.82;99657.74;1812565;77;20983;-70
2021/06/09 09:53:23;;;;;;;2.85;2.62;;;;;;;27.43;42.08;99659.47;1808599;77;21047;-71
2021/06/09 09:56:10;;;;;;;3.15;2.95;;;;;;;27.33;42.04;99653.70;1797254;78;20993;-70
2021/06/09 09:59:03;;;;;;;2.47;2.27;;;;;;;27.23;41.53;99644.22;1792962;77;21947;-70
2021/06/09 10:01:39;;;;;;;1.92;1.82;;;;;;;27.09;42.70;99647.09;1803147;78;20982;-69
2021/06/09 10:04:08;;;;;;;3.45;2.67;;;;;;;27.01;42.90;99645.92;1800256;78;22140;-70
2021/06/09 10:06:45;;;;;;;2.40;2.17;;;;;;;26.83;43.25;99639.77;1810526;77;21013;-70
2021/06/09 10:09:22;;;;;;;2.40;2.20;;;;;;;26.66;43.71;99633.16;1808619;77;20911;-70
2021/06/09 10:12:02;;;;;;;2.70;2.45;;;;;;;26.53;44.48;99637.41;1799798;78;21119;-72
2021/06/09 10:14:44;;;;;;;2.27;2.12;;;;;;;26.55;44.38;99623.86;1796774;79;20926;-71
2021/06/09 10:17:13;;;;;;;3.58;2.00;;;;;;;26.59;44.50;99622.44;1766353;81;20946;-71
2021/06/09 10:19:48;;;;;;;3.12;2.17;;;;;;;26.63;44.60;99617.52;1761805;81;21430;-71
2021/06/09 10:22:21;;;;;;;;;;;;;;;26.65;44.72;99614.14;1769716;81;20910;-71
2021/06/09 10:25:09;;;;;;;3.45;2.55;;;;;;;26.66;43.99;99615.28;1765987;81;21145;-70
2021/06/09 10:27:49;;;;;;;2.17;2.08;;;;;;;26.59;42.73;99606.41;1766540;81;21385;-71
2021/06/09 10:30:27;;;;;;;2.45;2.35;;;;;;;26.39;40.27;99610.86;1766958;81;21038;-71
2021/06/09 10:33:00;;;;;;;2.75;2.55;;;;;;;26.16;41.51;99606.59;1766886;80;21015;-72
2021/06/09 10:35:33;;;;;;;2.60;2.42;;;;;;;26.04;42.17;99604.67;1766649;81;20895;-71
2021/06/09 10:38:03;;;;;;;2.37;2.17;;;;;;;25.90;42.80;99606.45;1766785;81;21612;-71
2021/06/09 10:40:31;;;;;;;2.67;2.47;;;;;;;25.85;42.76;99602.20;1766589;81;20974;-71
2021/06/09 10:43:00;;;;;;;2.40;2.20;;;;;;;25.80;42.37;99593.45;1785957;79;20965;-72
2021/06/09 10:45:29;;;;;;;3.90;3.50;;;;;;;25.78;42.38;99594.16;1795346;79;20986;-71
2021/06/09 10:47:58;;;;;;;3.25;3.05;;;;;;;25.73;43.47;99592.58;1766447;81;20974;-72
2021/06/09 10:50:29;;;;;;;2.83;2.62;;;;;;;25.69;43.94;99596.65;1765639;81;21206;-72
2021/06/09 10:52:57;;;;;;;4.58;2.75;;;;;;;25.58;44.00;99583.84;1766507;80;20994;-71
2021/06/09 10:55:24;;;;;;;3.85;2.70;;;;;;;25.51;44.68;99585.62;1766611;78;20982;-72
2021/06/09 10:57:54;;;;;;;4.67;4.28;;;;;;;25.53;45.10;99587.59;1766515;81;20939;-71
2021/06/09 11:00:21;;;;;;;5.90;4.40;;;;;;;25.53;43.87;99588.42;1774585;78;21041;-73
2021/06/09 11:02:49;;;;;;;4.67;3.20;;;;;;;25.49;43.72;99579.66;1779213;78;21134;-70
2021/06/09 11:05:16;;;;;;;2.87;2.70;;;;;;;25.45;44.07;99577.06;1783411;78;21063;-70
2021/06/09 11:07:46;;;;;;;3.30;3.00;;;;;;;25.40;44.28;99575.48;1755534;79;20989;-71
2021/06/09 11:10:18;;;;;;;3.47;2.87;;;;;;;25.39;44.80;99575.16;1779247;77;21081;-70
2021/06/09 11:12:50;;;;;;;4.62;3.05;;;;;;;25.36;45.20;99572.38;1797362;77;21515;-72
2021/06/09 11:15:21;;;;;;;3.60;3.30;;;;;;;25.40;45.90;99570.15;1794377;78;21064;-71
2021/06/09 11:17:56;;;;;;;4.00;3.67;;;;;;;25.44;45.85;99574.91;1791731;78;20962;-72
2021/06/09 11:20:34;;;;;;;4.30;3.08;;;;;;;25.37;45.21;99567.87;1827688;78;21481;-70
2021/06/09 11:23:09;;;;;;;3.40;3.10;;;;;;;25.29;45.21;99573.33;1802053;78;21027;-72
2021/06/09 11:25:45;;;;;;;3.00;2.80;;;;;;;25.25;44.80;99567.05;1828433;77;21001;-72
2021/06/09 11:28:18;;;;;;;3.47;2.75;;;;;;;25.33;44.41;99568.76;1829805;77;21152;-72
2021/06/09 11:31:06;;;;;;;3.02;2.70;;;;;;;25.45;44.26;99559.73;1824036;77;21551;-72
2021/06/09 11:33:55;;;;;;;3.50;3.20;;;;;;;25.64;44.13;99565.73;1821633;77;21503;-73
2021/06/09 11:36:38;;;;;;;3.75;3.00;;;;;;;25.80;45.03;99565.95;1845137;77;21355;-71
2021/06/09 11:39:22;;;;;;;3.40;2.98;;;;;;;25.94;45.32;99558.36;1835419;77;21618;-73
2021/06/09 11:41:50;;;;;;;3.20;3.00;;;;;;;26.04;45.88;99561.98;1837131;77;21198;-73
2021/06/09 11:44:35;;;;;;;3.17;2.87;;;;;;;26.13;46.04;99556.80;1834316;77;20854;-72
2021/06/09 11:47:27;;;;;;;2.87;2.45;;;;;;;26.27;45.82;99549.69;1829364;78;21520;-75
2021/06/09 11:50:16;;;;;;;4.92;3.00;;;;;;;26.41;45.00;99544.72;1834090;77;20993;-71
2021/06/09 11:53:13;;;;;;;6.70;3.40;;;;;;;26.49;45.07;99546.70;1831153;77;20887;-71